sensor_id;sensor_type;location;lat;lon;timestamp;P1;durP1;ratioP1;P2;durP2;ratioP2
10293;SDS011;5192;50.328;7.610;2022-11-24T00:01:06;10.73;;;2.97;;
10293;SDS011;5192;50.328;7.610;2022-11-24T00:03:42;9.03;;;2.60;;
10293;SDS011;5192;50.328;7.610;2022-11-24T00:06:09;10.10;;;3.50;;
10293;SDS011;5192;50.328;7.610;2022-11-24T00:08:38;10.97;;;3.03;;
10293;SDS011;5192;50.328;7.610;2022-11-24T00:11:12;13.33;;;3.30;;
10293;SDS011;5192;50.328;7.610;2022-11-24T00:13:40;13.53;;;3.37;;
10293;SDS011;5192;50.328;7.610;2022-11-24T00:16:14;11.60;;;2.63;;
10293;SDS011;5192;50.328;7.610;2022-11-24T00:19:10;11.20;;;3.10;;
10293;SDS011;5192;50.328;7.610;2022-11-24T00:21:36;16.90;;;3.30;;
10293;SDS011;5192;50.328;7.610;2022-11-24T00:24:02;12.67;;;3.40;;
10293;SDS011;5192;50.328;7.610;2022-11-24T00:26:30;12.57;;;3.70;;
10293;SDS011;5192;50.328;7.610;2022-11-24T00:28:58;13.17;;;3.10;;
10293;SDS011;5192;50.328;7.610;2022-11-24T00:31:29;12.20;;;3.43;;
10293;SDS011;5192;50.328;7.610;2022-11-24T00:33:59;13.73;;;3.00;;
10293;SDS011;5192;50.328;7.610;2022-11-24T00:36:30;9.47;;;2.80;;
10293;SDS011;5192;50.328;7.610;2022-11-24T00:38:57;11.33;;;3.40;;
10293;SDS011;5192;50.328;7.610;2022-11-24T00:41:44;11.40;;;2.70;;
10293;SDS011;5192;50.328;7.610;2022-11-24T00:44:11;10.07;;;3.40;;
10293;SDS011;5192;50.328;7.610;2022-11-24T00:46:38;14.00;;;3.77;;
10293;SDS011;5192;50.328;7.610;2022-11-24T00:49:04;14.13;;;3.03;;
10293;SDS011;5192;50.328;7.610;2022-11-24T00:51:31;14.83;;;3.33;;
10293;SDS011;5192;50.328;7.610;2022-11-24T00:53:59;14.43;;;3.57;;
10293;SDS011;5192;50.328;7.610;2022-11-24T00:56:26;14.37;;;3.27;;
10293;SDS011;5192;50.328;7.610;2022-11-24T00:58:54;9.53;;;3.37;;
10293;SDS011;5192;50.328;7.610;2022-11-24T01:01:23;17.87;;;4.17;;
10293;SDS011;5192;50.328;7.610;2022-11-24T01:03:52;12.37;;;3.43;;
10293;SDS011;5192;50.328;7.610;2022-11-24T01:06:23;11.57;;;3.17;;
10293;SDS011;5192;50.328;7.610;2022-11-24T01:08:52;12.07;;;2.90;;
10293;SDS011;5192;50.328;7.610;2022-11-24T01:11:22;8.00;;;3.23;;
10293;SDS011;5192;50.328;7.610;2022-11-24T01:14:19;6.47;;;3.23;;
10293;SDS011;5192;50.328;7.610;2022-11-24T01:16:47;9.87;;;2.70;;
10293;SDS011;5192;50.328;7.610;2022-11-24T01:19:13;8.23;;;3.10;;
10293;SDS011;5192;50.328;7.610;2022-11-24T01:21:40;9.80;;;3.30;;
10293;SDS011;5192;50.328;7.610;2022-11-24T01:24:06;10.50;;;3.00;;
10293;SDS011;5192;50.328;7.610;2022-11-24T01:26:33;11.60;;;3.50;;
10293;SDS011;5192;50.328;7.610;2022-11-24T01:28:59;9.50;;;2.77;;
10293;SDS011;5192;50.328;7.610;2022-11-24T01:31:25;14.43;;;3.20;;
10293;SDS011;5192;50.328;7.610;2022-11-24T01:33:52;12.63;;;3.53;;
10293;SDS011;5192;50.328;7.610;2022-11-24T01:36:20;14.43;;;3.80;;
10293;SDS011;5192;50.328;7.610;2022-11-24T01:38:47;10.93;;;2.87;;
10293;SDS011;5192;50.328;7.610;2022-11-24T01:41:17;12.83;;;3.43;;
10293;SDS011;5192;50.328;7.610;2022-11-24T01:43:48;10.37;;;3.50;;
10293;SDS011;5192;50.328;7.610;2022-11-24T01:49:11;8.30;;;3.13;;
10293;SDS011;5192;50.328;7.610;2022-11-24T01:51:47;13.73;;;3.43;;
10293;SDS011;5192;50.328;7.610;2022-11-24T01:54:19;11.93;;;3.43;;
10293;SDS011;5192;50.328;7.610;2022-11-24T01:57:13;10.07;;;3.00;;
10293;SDS011;5192;50.328;7.610;2022-11-24T02:00:00;9.73;;;3.17;;
10293;SDS011;5192;50.328;7.610;2022-11-24T02:02:36;8.70;;;3.30;;
10293;SDS011;5192;50.328;7.610;2022-11-24T02:05:04;10.17;;;2.67;;
10293;SDS011;5192;50.328;7.610;2022-11-24T02:07:35;12.30;;;3.20;;
10293;SDS011;5192;50.328;7.610;2022-11-24T02:10:03;10.17;;;2.87;;
10293;SDS011;5192;50.328;7.610;2022-11-24T02:12:35;10.73;;;3.50;;
10293;SDS011;5192;50.328;7.610;2022-11-24T02:15:03;11.57;;;2.83;;
10293;SDS011;5192;50.328;7.610;2022-11-24T02:17:29;15.57;;;2.80;;
10293;SDS011;5192;50.328;7.610;2022-11-24T02:20:00;9.07;;;2.67;;
10293;SDS011;5192;50.328;7.610;2022-11-24T02:28:18;12.63;;;3.60;;
10293;SDS011;5192;50.328;7.610;2022-11-24T02:30:46;9.73;;;3.30;;
10293;SDS011;5192;50.328;7.610;2022-11-24T02:33:14;14.57;;;2.97;;
10293;SDS011;5192;50.328;7.610;2022-11-24T02:35:42;15.20;;;3.60;;
10293;SDS011;5192;50.328;7.610;2022-11-24T02:38:10;14.50;;;3.30;;
10293;SDS011;5192;50.328;7.610;2022-11-24T02:40:40;10.60;;;3.30;;
10293;SDS011;5192;50.328;7.610;2022-11-24T02:43:11;11.03;;;3.80;;
10293;SDS011;5192;50.328;7.610;2022-11-24T02:45:41;13.67;;;2.93;;
10293;SDS011;5192;50.328;7.610;2022-11-24T02:48:08;13.30;;;3.60;;
10293;SDS011;5192;50.328;7.610;2022-11-24T02:50:35;13.37;;;3.33;;
10293;SDS011;5192;50.328;7.610;2022-11-24T02:53:04;12.70;;;2.97;;
10293;SDS011;5192;50.328;7.610;2022-11-24T02:55:32;10.57;;;2.83;;
10293;SDS011;5192;50.328;7.610;2022-11-24T02:57:58;12.53;;;3.80;;
10293;SDS011;5192;50.328;7.610;2022-11-24T03:00:27;11.13;;;3.20;;
10293;SDS011;5192;50.328;7.610;2022-11-24T03:02:53;11.57;;;3.23;;
10293;SDS011;5192;50.328;7.610;2022-11-24T03:05:20;12.33;;;3.20;;
10293;SDS011;5192;50.328;7.610;2022-11-24T03:07:47;16.13;;;3.10;;
10293;SDS011;5192;50.328;7.610;2022-11-24T03:10:13;11.27;;;2.70;;
10293;SDS011;5192;50.328;7.610;2022-11-24T03:12:40;18.93;;;3.97;;
10293;SDS011;5192;50.328;7.610;2022-11-24T03:15:07;13.23;;;3.00;;
10293;SDS011;5192;50.328;7.610;2022-11-24T03:17:33;10.10;;;3.17;;
10293;SDS011;5192;50.328;7.610;2022-11-24T03:20:00;14.53;;;2.93;;
10293;SDS011;5192;50.328;7.610;2022-11-24T03:22:27;15.97;;;3.20;;
10293;SDS011;5192;50.328;7.610;2022-11-24T03:24:53;9.70;;;2.77;;
10293;SDS011;5192;50.328;7.610;2022-11-24T03:27:21;14.67;;;3.10;;
10293;SDS011;5192;50.328;7.610;2022-11-24T03:29:47;12.27;;;3.27;;
10293;SDS011;5192;50.328;7.610;2022-11-24T03:32:15;13.93;;;3.93;;
10293;SDS011;5192;50.328;7.610;2022-11-24T03:34:42;13.63;;;3.50;;
10293;SDS011;5192;50.328;7.610;2022-11-24T03:37:09;9.97;;;3.00;;
10293;SDS011;5192;50.328;7.610;2022-11-24T03:39:34;10.50;;;3.60;;
10293;SDS011;5192;50.328;7.610;2022-11-24T03:42:01;12.13;;;3.00;;
10293;SDS011;5192;50.328;7.610;2022-11-24T03:44:28;16.67;;;3.97;;
10293;SDS011;5192;50.328;7.610;2022-11-24T03:46:54;12.30;;;3.30;;
10293;SDS011;5192;50.328;7.610;2022-11-24T03:49:20;11.77;;;3.00;;
10293;SDS011;5192;50.328;7.610;2022-11-24T03:51:46;11.20;;;2.80;;
10293;SDS011;5192;50.328;7.610;2022-11-24T03:54:13;13.83;;;3.27;;
10293;SDS011;5192;50.328;7.610;2022-11-24T03:56:39;12.70;;;3.10;;
10293;SDS011;5192;50.328;7.610;2022-11-24T03:59:05;11.50;;;3.27;;
10293;SDS011;5192;50.328;7.610;2022-11-24T04:01:33;15.63;;;2.87;;
10293;SDS011;5192;50.328;7.610;2022-11-24T04:04:00;11.70;;;2.87;;
10293;SDS011;5192;50.328;7.610;2022-11-24T04:06:30;11.80;;;3.73;;
10293;SDS011;5192;50.328;7.610;2022-11-24T04:08:56;13.10;;;3.27;;
10293;SDS011;5192;50.328;7.610;2022-11-24T04:11:24;11.43;;;3.57;;
10293;SDS011;5192;50.328;7.610;2022-11-24T04:14:09;14.97;;;3.67;;
10293;SDS011;5192;50.328;7.610;2022-11-24T04:16:37;11.00;;;3.63;;
10293;SDS011;5192;50.328;7.610;2022-11-24T04:19:03;13.80;;;3.80;;
10293;SDS011;5192;50.328;7.610;2022-11-24T04:21:31;12.10;;;3.57;;
10293;SDS011;5192;50.328;7.610;2022-11-24T04:23:56;17.10;;;3.17;;
10293;SDS011;5192;50.328;7.610;2022-11-24T04:26:23;16.60;;;3.60;;
10293;SDS011;5192;50.328;7.610;2022-11-24T04:28:48;10.37;;;3.83;;
10293;SDS011;5192;50.328;7.610;2022-11-24T04:31:15;18.43;;;3.70;;
10293;SDS011;5192;50.328;7.610;2022-11-24T04:33:43;12.13;;;3.50;;
10293;SDS011;5192;50.328;7.610;2022-11-24T04:36:09;16.37;;;3.40;;
10293;SDS011;5192;50.328;7.610;2022-11-24T04:38:35;14.27;;;3.23;;
10293;SDS011;5192;50.328;7.610;2022-11-24T04:41:02;10.20;;;2.87;;
10293;SDS011;5192;50.328;7.610;2022-11-24T04:43:29;17.40;;;3.70;;
10293;SDS011;5192;50.328;7.610;2022-11-24T04:45:58;11.60;;;3.27;;
10293;SDS011;5192;50.328;7.610;2022-11-24T04:48:25;14.77;;;3.40;;
10293;SDS011;5192;50.328;7.610;2022-11-24T04:50:56;12.20;;;3.30;;
10293;SDS011;5192;50.328;7.610;2022-11-24T04:53:24;15.00;;;4.37;;
10293;SDS011;5192;50.328;7.610;2022-11-24T04:55:49;14.40;;;3.40;;
10293;SDS011;5192;50.328;7.610;2022-11-24T04:58:15;17.53;;;4.00;;
10293;SDS011;5192;50.328;7.610;2022-11-24T05:00:41;15.80;;;3.70;;
10293;SDS011;5192;50.328;7.610;2022-11-24T05:03:07;15.97;;;4.00;;
10293;SDS011;5192;50.328;7.610;2022-11-24T05:05:34;18.77;;;4.37;;
10293;SDS011;5192;50.328;7.610;2022-11-24T05:08:03;15.10;;;4.10;;
10293;SDS011;5192;50.328;7.610;2022-11-24T05:10:28;13.53;;;3.20;;
10293;SDS011;5192;50.328;7.610;2022-11-24T05:13:06;20.17;;;3.77;;
10293;SDS011;5192;50.328;7.610;2022-11-24T05:15:35;10.27;;;2.87;;
10293;SDS011;5192;50.328;7.610;2022-11-24T05:18:09;10.80;;;2.80;;
10293;SDS011;5192;50.328;7.610;2022-11-24T05:20:39;13.23;;;3.77;;
10293;SDS011;5192;50.328;7.610;2022-11-24T05:23:11;11.27;;;3.67;;
10293;SDS011;5192;50.328;7.610;2022-11-24T05:25:38;15.63;;;3.33;;
10293;SDS011;5192;50.328;7.610;2022-11-24T05:28:07;19.03;;;3.80;;
10293;SDS011;5192;50.328;7.610;2022-11-24T05:30:39;16.67;;;3.60;;
10293;SDS011;5192;50.328;7.610;2022-11-24T05:33:05;14.90;;;3.37;;
10293;SDS011;5192;50.328;7.610;2022-11-24T05:35:36;10.50;;;3.10;;
10293;SDS011;5192;50.328;7.610;2022-11-24T05:38:03;14.17;;;3.03;;
10293;SDS011;5192;50.328;7.610;2022-11-24T05:40:30;12.97;;;3.20;;
10293;SDS011;5192;50.328;7.610;2022-11-24T05:42:56;10.37;;;3.13;;
10293;SDS011;5192;50.328;7.610;2022-11-24T05:45:23;14.93;;;3.70;;
10293;SDS011;5192;50.328;7.610;2022-11-24T05:47:49;11.93;;;3.47;;
10293;SDS011;5192;50.328;7.610;2022-11-24T05:50:16;15.30;;;2.97;;
10293;SDS011;5192;50.328;7.610;2022-11-24T05:52:46;17.13;;;3.40;;
10293;SDS011;5192;50.328;7.610;2022-11-24T05:55:13;13.27;;;2.97;;
10293;SDS011;5192;50.328;7.610;2022-11-24T05:57:40;16.90;;;3.63;;
10293;SDS011;5192;50.328;7.610;2022-11-24T06:00:07;14.63;;;3.27;;
10293;SDS011;5192;50.328;7.610;2022-11-24T06:02:35;12.30;;;2.87;;
10293;SDS011;5192;50.328;7.610;2022-11-24T06:05:01;15.13;;;3.67;;
10293;SDS011;5192;50.328;7.610;2022-11-24T06:07:28;14.70;;;3.50;;
10293;SDS011;5192;50.328;7.610;2022-11-24T06:09:53;16.77;;;3.20;;
10293;SDS011;5192;50.328;7.610;2022-11-24T06:12:20;15.60;;;3.63;;
10293;SDS011;5192;50.328;7.610;2022-11-24T06:14:48;13.10;;;4.03;;
10293;SDS011;5192;50.328;7.610;2022-11-24T06:17:16;16.33;;;3.60;;
10293;SDS011;5192;50.328;7.610;2022-11-24T06:19:43;12.60;;;3.30;;
10293;SDS011;5192;50.328;7.610;2022-11-24T06:22:14;14.40;;;3.07;;
10293;SDS011;5192;50.328;7.610;2022-11-24T06:24:39;15.17;;;3.07;;
10293;SDS011;5192;50.328;7.610;2022-11-24T06:27:07;11.80;;;3.07;;
10293;SDS011;5192;50.328;7.610;2022-11-24T06:29:33;14.30;;;3.27;;
10293;SDS011;5192;50.328;7.610;2022-11-24T06:31:58;14.03;;;3.20;;
10293;SDS011;5192;50.328;7.610;2022-11-24T06:34:25;15.47;;;3.40;;
10293;SDS011;5192;50.328;7.610;2022-11-24T06:36:53;14.23;;;3.20;;
10293;SDS011;5192;50.328;7.610;2022-11-24T06:39:19;11.30;;;2.83;;
10293;SDS011;5192;50.328;7.610;2022-11-24T06:41:49;10.90;;;2.77;;
10293;SDS011;5192;50.328;7.610;2022-11-24T06:44:16;12.10;;;3.00;;
10293;SDS011;5192;50.328;7.610;2022-11-24T06:46:43;8.37;;;2.57;;
10293;SDS011;5192;50.328;7.610;2022-11-24T06:49:13;13.17;;;2.73;;
10293;SDS011;5192;50.328;7.610;2022-11-24T06:51:38;13.23;;;3.50;;
10293;SDS011;5192;50.328;7.610;2022-11-24T06:54:06;9.73;;;3.07;;
10293;SDS011;5192;50.328;7.610;2022-11-24T06:56:34;16.43;;;3.30;;
10293;SDS011;5192;50.328;7.610;2022-11-24T06:59:00;12.57;;;2.80;;
10293;SDS011;5192;50.328;7.610;2022-11-24T07:01:28;14.23;;;2.97;;
10293;SDS011;5192;50.328;7.610;2022-11-24T07:03:54;12.07;;;2.67;;
10293;SDS011;5192;50.328;7.610;2022-11-24T07:06:22;12.43;;;2.67;;
10293;SDS011;5192;50.328;7.610;2022-11-24T07:08:53;11.73;;;3.10;;
10293;SDS011;5192;50.328;7.610;2022-11-24T07:11:21;12.50;;;3.57;;
10293;SDS011;5192;50.328;7.610;2022-11-24T07:13:50;13.23;;;3.20;;
10293;SDS011;5192;50.328;7.610;2022-11-24T07:16:21;13.17;;;2.63;;
10293;SDS011;5192;50.328;7.610;2022-11-24T07:18:56;13.03;;;3.10;;
10293;SDS011;5192;50.328;7.610;2022-11-24T07:21:23;13.47;;;2.70;;
10293;SDS011;5192;50.328;7.610;2022-11-24T07:23:50;9.57;;;2.47;;
10293;SDS011;5192;50.328;7.610;2022-11-24T07:26:19;12.73;;;2.73;;
10293;SDS011;5192;50.328;7.610;2022-11-24T07:28:45;8.67;;;2.47;;
10293;SDS011;5192;50.328;7.610;2022-11-24T07:31:13;10.03;;;3.00;;
10293;SDS011;5192;50.328;7.610;2022-11-24T07:33:47;7.87;;;2.00;;
10293;SDS011;5192;50.328;7.610;2022-11-24T07:36:14;10.13;;;2.73;;
10293;SDS011;5192;50.328;7.610;2022-11-24T07:38:41;9.57;;;2.70;;
10293;SDS011;5192;50.328;7.610;2022-11-24T07:41:07;6.67;;;1.90;;
10293;SDS011;5192;50.328;7.610;2022-11-24T07:43:35;8.13;;;2.40;;
10293;SDS011;5192;50.328;7.610;2022-11-24T07:46:03;9.43;;;2.43;;
10293;SDS011;5192;50.328;7.610;2022-11-24T07:48:34;10.03;;;2.57;;
10293;SDS011;5192;50.328;7.610;2022-11-24T07:51:01;11.60;;;2.50;;
10293;SDS011;5192;50.328;7.610;2022-11-24T07:53:29;8.87;;;2.40;;
10293;SDS011;5192;50.328;7.610;2022-11-24T07:55:56;8.50;;;2.30;;
10293;SDS011;5192;50.328;7.610;2022-11-24T07:58:28;7.13;;;2.10;;
10293;SDS011;5192;50.328;7.610;2022-11-24T08:00:56;9.63;;;2.70;;
10293;SDS011;5192;50.328;7.610;2022-11-24T08:03:24;8.87;;;2.80;;
10293;SDS011;5192;50.328;7.610;2022-11-24T08:05:54;6.10;;;2.17;;
10293;SDS011;5192;50.328;7.610;2022-11-24T08:08:21;9.47;;;2.50;;
10293;SDS011;5192;50.328;7.610;2022-11-24T08:10:48;6.90;;;1.90;;
10293;SDS011;5192;50.328;7.610;2022-11-24T08:13:16;8.23;;;2.27;;
10293;SDS011;5192;50.328;7.610;2022-11-24T08:15:42;9.23;;;2.10;;
10293;SDS011;5192;50.328;7.610;2022-11-24T08:18:07;8.50;;;2.20;;
10293;SDS011;5192;50.328;7.610;2022-11-24T08:20:35;8.50;;;2.63;;
10293;SDS011;5192;50.328;7.610;2022-11-24T08:23:01;6.80;;;2.10;;
10293;SDS011;5192;50.328;7.610;2022-11-24T08:25:28;8.77;;;2.40;;
10293;SDS011;5192;50.328;7.610;2022-11-24T08:27:57;7.70;;;2.57;;
10293;SDS011;5192;50.328;7.610;2022-11-24T08:30:26;9.67;;;2.30;;
10293;SDS011;5192;50.328;7.610;2022-11-24T08:32:53;8.67;;;2.10;;
10293;SDS011;5192;50.328;7.610;2022-11-24T08:35:18;11.13;;;2.47;;
10293;SDS011;5192;50.328;7.610;2022-11-24T08:37:45;9.30;;;2.80;;
10293;SDS011;5192;50.328;7.610;2022-11-24T08:40:12;11.97;;;3.00;;
10293;SDS011;5192;50.328;7.610;2022-11-24T08:42:40;8.23;;;2.53;;
10293;SDS011;5192;50.328;7.610;2022-11-24T08:45:06;7.07;;;2.33;;
10293;SDS011;5192;50.328;7.610;2022-11-24T08:47:34;5.83;;;2.20;;
10293;SDS011;5192;50.328;7.610;2022-11-24T08:50:00;8.40;;;2.10;;
10293;SDS011;5192;50.328;7.610;2022-11-24T08:52:27;7.97;;;2.10;;
10293;SDS011;5192;50.328;7.610;2022-11-24T08:54:54;6.83;;;2.07;;
10293;SDS011;5192;50.328;7.610;2022-11-24T08:57:22;9.40;;;2.50;;
10293;SDS011;5192;50.328;7.610;2022-11-24T08:59:50;7.57;;;1.90;;
10293;SDS011;5192;50.328;7.610;2022-11-24T09:02:15;7.10;;;2.20;;
10293;SDS011;5192;50.328;7.610;2022-11-24T09:04:41;5.50;;;2.00;;
10293;SDS011;5192;50.328;7.610;2022-11-24T09:07:11;8.03;;;2.10;;
10293;SDS011;5192;50.328;7.610;2022-11-24T09:09:36;3.93;;;1.73;;
10293;SDS011;5192;50.328;7.610;2022-11-24T09:12:03;6.73;;;1.70;;
10293;SDS011;5192;50.328;7.610;2022-11-24T09:14:30;7.57;;;1.90;;
10293;SDS011;5192;50.328;7.610;2022-11-24T09:16:56;5.37;;;1.50;;
10293;SDS011;5192;50.328;7.610;2022-11-24T09:19:22;8.73;;;1.80;;
10293;SDS011;5192;50.328;7.610;2022-11-24T09:21:49;5.20;;;2.00;;
10293;SDS011;5192;50.328;7.610;2022-11-24T09:24:15;5.47;;;2.13;;
10293;SDS011;5192;50.328;7.610;2022-11-24T09:26:42;6.50;;;1.97;;
10293;SDS011;5192;50.328;7.610;2022-11-24T09:29:09;5.47;;;2.00;;
10293;SDS011;5192;50.328;7.610;2022-11-24T09:31:38;8.97;;;2.00;;
10293;SDS011;5192;50.328;7.610;2022-11-24T09:34:05;6.00;;;2.37;;
10293;SDS011;5192;50.328;7.610;2022-11-24T09:36:34;5.30;;;2.20;;
10293;SDS011;5192;50.328;7.610;2022-11-24T09:39:00;6.60;;;2.30;;
10293;SDS011;5192;50.328;7.610;2022-11-24T09:50:14;7.53;;;2.33;;
10293;SDS011;5192;50.328;7.610;2022-11-24T09:55:49;9.37;;;2.37;;
10293;SDS011;5192;50.328;7.610;2022-11-24T10:01:18;4.33;;;1.80;;
10293;SDS011;5192;50.328;7.610;2022-11-24T10:03:50;8.53;;;2.60;;
10293;SDS011;5192;50.328;7.610;2022-11-24T10:11:57;8.10;;;2.00;;
10293;SDS011;5192;50.328;7.610;2022-11-24T10:14:50;9.60;;;1.80;;
10293;SDS011;5192;50.328;7.610;2022-11-24T10:25:56;7.17;;;2.00;;
10293;SDS011;5192;50.328;7.610;2022-11-24T10:28:27;6.57;;;1.60;;
10293;SDS011;5192;50.328;7.610;2022-11-24T10:31:17;8.40;;;2.70;;
10293;SDS011;5192;50.328;7.610;2022-11-24T10:33:56;6.57;;;1.87;;
10293;SDS011;5192;50.328;7.610;2022-11-24T10:36:36;7.80;;;2.20;;
10293;SDS011;5192;50.328;7.610;2022-11-24T10:45:11;5.37;;;1.87;;
10293;SDS011;5192;50.328;7.610;2022-11-24T10:47:50;7.53;;;1.97;;
10293;SDS011;5192;50.328;7.610;2022-11-24T10:50:22;6.53;;;2.30;;
10293;SDS011;5192;50.328;7.610;2022-11-24T10:56:00;8.83;;;2.43;;
10293;SDS011;5192;50.328;7.610;2022-11-24T10:58:32;6.73;;;1.70;;
10293;SDS011;5192;50.328;7.610;2022-11-24T11:03:58;10.17;;;2.03;;
10293;SDS011;5192;50.328;7.610;2022-11-24T11:06:27;8.10;;;2.27;;
10293;SDS011;5192;50.328;7.610;2022-11-24T11:09:14;5.43;;;2.10;;
10293;SDS011;5192;50.328;7.610;2022-11-24T11:11:44;7.27;;;2.30;;
10293;SDS011;5192;50.328;7.610;2022-11-24T11:20:18;8.00;;;1.73;;
10293;SDS011;5192;50.328;7.610;2022-11-24T11:22:59;9.03;;;1.90;;
10293;SDS011;5192;50.328;7.610;2022-11-24T11:25:39;6.83;;;2.07;;
10293;SDS011;5192;50.328;7.610;2022-11-24T11:31:04;8.37;;;2.03;;
10293;SDS011;5192;50.328;7.610;2022-11-24T11:33:43;7.70;;;1.70;;
10293;SDS011;5192;50.328;7.610;2022-11-24T11:36:22;4.80;;;1.70;;
10293;SDS011;5192;50.328;7.610;2022-11-24T11:38:50;7.50;;;2.10;;
10293;SDS011;5192;50.328;7.610;2022-11-24T11:41:25;9.47;;;1.93;;
10293;SDS011;5192;50.328;7.610;2022-11-24T11:44:39;8.03;;;1.90;;
10293;SDS011;5192;50.328;7.610;2022-11-24T11:46:54;7.70;;;2.07;;
10293;SDS011;5192;50.328;7.610;2022-11-24T11:49:32;6.47;;;2.30;;
10293;SDS011;5192;50.328;7.610;2022-11-24T11:52:50;7.03;;;2.43;;
10293;SDS011;5192;50.328;7.610;2022-11-24T11:58:12;6.10;;;2.13;;
10293;SDS011;5192;50.328;7.610;2022-11-24T12:03:54;8.43;;;2.07;;
10293;SDS011;5192;50.328;7.610;2022-11-24T12:15:41;6.17;;;1.90;;
10293;SDS011;5192;50.328;7.610;2022-11-24T12:43:40;5.13;;;1.67;;
10293;SDS011;5192;50.328;7.610;2022-11-24T12:46:27;4.37;;;1.97;;
10293;SDS011;5192;50.328;7.610;2022-11-24T12:52:11;4.70;;;1.50;;
10293;SDS011;5192;50.328;7.610;2022-11-24T12:54:57;4.77;;;2.13;;
10293;SDS011;5192;50.328;7.610;2022-11-24T12:57:35;7.63;;;2.17;;
10293;SDS011;5192;50.328;7.610;2022-11-24T13:00:21;5.77;;;2.03;;
10293;SDS011;5192;50.328;7.610;2022-11-24T13:02:59;5.30;;;1.97;;
10293;SDS011;5192;50.328;7.610;2022-11-24T13:08:40;7.90;;;2.10;;
10293;SDS011;5192;50.328;7.610;2022-11-24T13:17:00;5.37;;;2.00;;
10293;SDS011;5192;50.328;7.610;2022-11-24T13:19:45;4.77;;;1.83;;
10293;SDS011;5192;50.328;7.610;2022-11-24T13:22:13;8.17;;;2.00;;
10293;SDS011;5192;50.328;7.610;2022-11-24T13:24:39;7.37;;;1.87;;
10293;SDS011;5192;50.328;7.610;2022-11-24T13:29:39;6.47;;;2.10;;
10293;SDS011;5192;50.328;7.610;2022-11-24T14:03:58;3.97;;;1.90;;
10293;SDS011;5192;50.328;7.610;2022-11-24T14:09:46;7.20;;;2.13;;
10293;SDS011;5192;50.328;7.610;2022-11-24T14:12:17;5.40;;;1.67;;
10293;SDS011;5192;50.328;7.610;2022-11-24T14:15:11;9.27;;;1.87;;
10293;SDS011;5192;50.328;7.610;2022-11-24T14:18:14;6.83;;;1.73;;
10293;SDS011;5192;50.328;7.610;2022-11-24T14:20:44;5.40;;;1.87;;
10293;SDS011;5192;50.328;7.610;2022-11-24T14:23:11;6.53;;;2.00;;
10293;SDS011;5192;50.328;7.610;2022-11-24T14:25:37;4.90;;;1.80;;
10293;SDS011;5192;50.328;7.610;2022-11-24T14:28:26;5.30;;;1.87;;
10293;SDS011;5192;50.328;7.610;2022-11-24T14:36:40;5.93;;;2.20;;
10293;SDS011;5192;50.328;7.610;2022-11-24T14:39:12;6.77;;;2.50;;
10293;SDS011;5192;50.328;7.610;2022-11-24T14:41:42;6.77;;;1.70;;
10293;SDS011;5192;50.328;7.610;2022-11-24T14:44:42;7.93;;;2.10;;
10293;SDS011;5192;50.328;7.610;2022-11-24T14:47:33;8.67;;;2.27;;
10293;SDS011;5192;50.328;7.610;2022-11-24T14:52:53;9.20;;;2.03;;
10293;SDS011;5192;50.328;7.610;2022-11-24T14:55:23;6.93;;;2.20;;
10293;SDS011;5192;50.328;7.610;2022-11-24T14:57:53;8.27;;;2.47;;
10293;SDS011;5192;50.328;7.610;2022-11-24T15:05:50;9.57;;;2.10;;
10293;SDS011;5192;50.328;7.610;2022-11-24T15:08:41;7.27;;;1.93;;
10293;SDS011;5192;50.328;7.610;2022-11-24T15:11:11;8.43;;;2.23;;
10293;SDS011;5192;50.328;7.610;2022-11-24T15:13:38;6.43;;;1.80;;
10293;SDS011;5192;50.328;7.610;2022-11-24T15:19:01;8.13;;;1.90;;
10293;SDS011;5192;50.328;7.610;2022-11-24T15:21:32;14.27;;;2.80;;
10293;SDS011;5192;50.328;7.610;2022-11-24T15:26:45;6.50;;;1.90;;
10293;SDS011;5192;50.328;7.610;2022-11-24T15:29:12;9.87;;;2.10;;
10293;SDS011;5192;50.328;7.610;2022-11-24T15:31:38;6.87;;;2.17;;
10293;SDS011;5192;50.328;7.610;2022-11-24T15:34:05;4.83;;;2.17;;
10293;SDS011;5192;50.328;7.610;2022-11-24T15:36:31;7.00;;;2.00;;
10293;SDS011;5192;50.328;7.610;2022-11-24T15:38:57;7.73;;;2.43;;
10293;SDS011;5192;50.328;7.610;2022-11-24T15:41:25;10.00;;;1.97;;
10293;SDS011;5192;50.328;7.610;2022-11-24T15:43:53;8.33;;;2.00;;
10293;SDS011;5192;50.328;7.610;2022-11-24T15:46:28;8.00;;;2.30;;
10293;SDS011;5192;50.328;7.610;2022-11-24T15:49:01;5.73;;;2.03;;
10293;SDS011;5192;50.328;7.610;2022-11-24T15:51:27;7.93;;;2.07;;
